createdAt,value
2018-01-15T00:00:33.604Z,101519.75
2018-01-15T00:03:08.910Z,101514.87
2018-01-15T00:05:43.775Z,101505.19
2018-01-15T00:08:18.789Z,101504.45
2018-01-15T00:10:53.766Z,101505.84
2018-01-15T00:13:28.763Z,101500.59
2018-01-15T00:16:04.120Z,101491.55
2018-01-15T00:18:39.071Z,101480.92
2018-01-15T00:21:13.575Z,101474.78
2018-01-15T00:23:48.803Z,101471.13
2018-01-15T00:26:23.864Z,101460.21
2018-01-15T00:28:58.624Z,101462.05
2018-01-15T00:31:33.982Z,101454.68
2018-01-15T00:34:08.858Z,101456.98
2018-01-15T00:36:44.112Z,101451.23
2018-01-15T00:39:18.848Z,101450.55
2018-01-15T00:41:53.855Z,101441.55
2018-01-15T00:44:28.847Z,101430.25
2018-01-15T00:47:03.810Z,101429.34
2018-01-15T00:49:39.165Z,101425.34
2018-01-15T00:52:13.994Z,101418.75
2018-01-15T00:54:49.261Z,101413.11
2018-01-15T00:57:24.188Z,101407.33
2018-01-15T00:59:59.237Z,101408.70
2018-01-15T01:02:34.691Z,101406.37
2018-01-15T01:05:09.896Z,101402.22
2018-01-15T01:07:44.862Z,101392.34
2018-01-15T01:10:19.946Z,101386.70
2018-01-15T01:12:54.902Z,101381.09
2018-01-15T01:15:30.000Z,101379.34
2018-01-15T01:18:04.970Z,101378.17
2018-01-15T01:20:40.018Z,101368.04
2018-01-15T01:23:14.947Z,101359.50
2018-01-15T01:25:49.871Z,101369.22
2018-01-15T01:28:24.934Z,101352.04
2018-01-15T01:30:59.899Z,101352.92
2018-01-15T01:33:34.964Z,101358.23
2018-01-15T01:36:09.530Z,101352.97
2018-01-15T01:38:44.970Z,101351.20
2018-01-15T01:41:20.063Z,101342.81
2018-01-15T01:43:55.131Z,101345.86
2018-01-15T01:46:29.956Z,101348.80
2018-01-15T01:49:04.707Z,101349.65
2018-01-15T01:51:39.891Z,101354.77
2018-01-15T01:54:14.632Z,101355.27
2018-01-15T01:56:49.996Z,101349.05
2018-01-15T01:59:25.098Z,101347.75
2018-01-15T02:02:00.166Z,101338.58
2018-01-15T02:04:35.383Z,101337.28
2018-01-15T02:07:10.023Z,101325.27
2018-01-15T02:09:45.342Z,101327.05
2018-01-15T02:12:20.342Z,101327.58
2018-01-15T02:14:55.303Z,101335.94
2018-01-15T02:17:30.459Z,101314.77
2018-01-15T02:20:05.094Z,101303.68
2018-01-15T02:22:40.366Z,101300.95
2018-01-15T02:25:15.138Z,101301.36
2018-01-15T02:27:49.777Z,101298.30
2018-01-15T02:30:25.220Z,101299.67
2018-01-15T02:33:00.064Z,101294.90
2018-01-15T02:35:35.309Z,101285.19
2018-01-15T02:38:09.874Z,101272.67
2018-01-15T02:40:45.140Z,101260.66
2018-01-15T02:43:20.152Z,101256.69
2018-01-15T02:45:55.136Z,101253.27
2018-01-15T02:48:30.094Z,101249.98
2018-01-15T02:51:04.855Z,101242.78
2018-01-15T02:53:40.062Z,101244.13
2018-01-15T02:56:15.120Z,101233.61
2018-01-15T02:58:50.130Z,101232.48
2018-01-15T03:01:25.281Z,101226.48
2018-01-15T03:04:00.276Z,101229.25
2018-01-15T03:06:35.116Z,101222.66
2018-01-15T03:09:10.199Z,101213.80
2018-01-15T03:11:45.391Z,101218.16
2018-01-15T03:14:20.315Z,101215.80
2018-01-15T03:16:55.143Z,101213.09
2018-01-15T03:19:30.292Z,101202.91
2018-01-15T03:22:05.164Z,101201.64
2018-01-15T03:24:40.502Z,101198.52
2018-01-15T03:27:15.225Z,101198.60
2018-01-15T03:29:50.170Z,101188.03
2018-01-15T03:32:25.273Z,101185.00
2018-01-15T03:35:00.248Z,101182.75
2018-01-15T03:37:35.402Z,101175.36
2018-01-15T03:40:10.279Z,101170.80
2018-01-15T03:42:45.239Z,101171.22
2018-01-15T03:45:20.274Z,101166.16
2018-01-15T03:47:55.526Z,101167.42
2018-01-15T03:50:30.803Z,101154.23
2018-01-15T03:53:05.791Z,101157.44
2018-01-15T03:55:41.349Z,101144.56
2018-01-15T03:58:16.327Z,101151.28
2018-01-15T04:00:51.382Z,101133.34
2018-01-15T04:03:26.353Z,101142.95
2018-01-15T04:06:01.315Z,101134.27
2018-01-15T04:08:36.309Z,101118.06
2018-01-15T04:11:11.598Z,101114.14
2018-01-15T04:13:46.675Z,101112.23
2018-01-15T04:16:22.134Z,101116.73
2018-01-15T04:18:56.899Z,101106.02
2018-01-15T04:21:32.820Z,101101.25
2018-01-15T04:24:07.855Z,101101.55
2018-01-15T04:26:42.877Z,101098.77
2018-01-15T04:29:18.038Z,101091.68
2018-01-15T04:31:53.465Z,101086.91
2018-01-15T04:34:28.426Z,101078.96
2018-01-15T04:37:03.222Z,101078.05
2018-01-15T04:39:38.578Z,101078.40
2018-01-15T04:42:13.495Z,101067.48
2018-01-15T04:44:48.652Z,101065.11
2018-01-15T04:47:23.611Z,101059.31
2018-01-15T04:49:58.687Z,101066.23
2018-01-15T04:52:33.932Z,101051.66
2018-01-15T04:55:08.594Z,101047.64
2018-01-15T04:57:43.959Z,101043.02
2018-01-15T05:00:19.320Z,101029.15
2018-01-15T05:02:53.911Z,101027.64
2018-01-15T05:05:29.367Z,101021.02
2018-01-15T05:08:04.428Z,101025.27
2018-01-15T05:10:39.537Z,101030.33
2018-01-15T05:13:14.463Z,101016.75
2018-01-15T05:15:49.554Z,101006.50
2018-01-15T05:18:24.674Z,101005.45
2018-01-15T05:20:59.653Z,100994.69
2018-01-15T05:23:34.883Z,100982.25
2018-01-15T05:26:09.983Z,100978.27
2018-01-15T05:28:44.775Z,100984.73
2018-01-15T05:31:19.960Z,100972.20
2018-01-15T05:33:55.343Z,100966.76
2018-01-15T05:36:29.786Z,100965.80
2018-01-15T05:39:04.227Z,100962.58
2018-01-15T05:41:38.845Z,100959.38
2018-01-15T05:44:13.624Z,100953.98
2018-01-15T05:46:48.463Z,100961.30
2018-01-15T05:49:23.622Z,100951.66
2018-01-15T05:51:58.536Z,100952.17
2018-01-15T05:54:33.590Z,100941.19
2018-01-15T05:57:08.691Z,100943.30
2018-01-15T05:59:43.830Z,100941.02
2018-01-15T06:02:18.839Z,100946.26
2018-01-15T06:04:53.713Z,100934.19
2018-01-15T06:07:28.627Z,100922.52
2018-01-15T06:10:03.417Z,100925.47
2018-01-15T06:12:38.878Z,100919.03
2018-01-15T06:15:13.581Z,100919.37
2018-01-15T06:17:48.671Z,100917.21
2018-01-15T06:20:23.736Z,100902.47
2018-01-15T06:22:58.787Z,100910.47
2018-01-15T06:25:33.860Z,100903.39
2018-01-15T06:28:08.823Z,100898.89
2018-01-15T06:30:44.191Z,100883.74
2018-01-15T06:33:18.769Z,100877.99
2018-01-15T06:35:54.055Z,100876.04
2018-01-15T06:38:29.627Z,100869.77
2018-01-15T06:41:04.135Z,100871.91
2018-01-15T06:43:39.022Z,100870.55
2018-01-15T06:46:14.123Z,100859.38
2018-01-15T06:48:48.793Z,100850.00
2018-01-15T06:51:23.638Z,100846.35
2018-01-15T06:53:58.690Z,100832.16
2018-01-15T06:56:33.255Z,100832.08
2018-01-15T06:59:08.700Z,100830.67
2018-01-15T07:01:43.849Z,100821.05
2018-01-15T07:04:18.616Z,100814.70
2018-01-15T07:06:53.385Z,100815.52
2018-01-15T07:09:28.800Z,100821.59
2018-01-15T07:12:03.911Z,100807.95
2018-01-15T07:14:39.070Z,100806.43
2018-01-15T07:17:13.880Z,100803.25
2018-01-15T07:19:48.820Z,100800.52
2018-01-15T07:22:23.948Z,100795.88
2018-01-15T07:24:58.935Z,100801.56
2018-01-15T07:27:34.104Z,100780.28
2018-01-15T07:30:08.997Z,100786.88
2018-01-15T07:32:44.368Z,100783.82
2018-01-15T07:35:19.143Z,100785.47
2018-01-15T07:37:54.308Z,100786.13
2018-01-15T07:40:29.386Z,100784.56
2018-01-15T07:43:04.833Z,100768.50
2018-01-15T07:45:39.863Z,100773.78
2018-01-15T07:48:15.402Z,100777.93
2018-01-15T07:50:51.010Z,100775.95
2018-01-15T07:53:25.575Z,100769.31
2018-01-15T07:56:00.545Z,100764.99
2018-01-15T07:58:35.075Z,100763.02
2018-01-15T08:01:09.448Z,100762.41
2018-01-15T08:03:44.331Z,100758.89
2018-01-15T08:06:19.339Z,100752.92
2018-01-15T08:08:54.466Z,100750.34
2018-01-15T08:11:29.351Z,100742.77
2018-01-15T08:14:04.517Z,100737.64
2018-01-15T08:16:39.283Z,100733.92
2018-01-15T08:19:14.274Z,100729.45
2018-01-15T08:21:49.258Z,100722.27
2018-01-15T08:24:24.126Z,100730.03
2018-01-15T08:26:59.149Z,100712.58
2018-01-15T08:29:34.239Z,100705.80
2018-01-15T08:32:09.283Z,100707.93
2018-01-15T08:34:44.455Z,100697.34
2018-01-15T08:37:19.275Z,100687.80
2018-01-15T08:39:54.206Z,100678.66
2018-01-15T08:42:29.099Z,100681.67
2018-01-15T08:45:03.752Z,100678.34
2018-01-15T08:47:39.022Z,100675.81
2018-01-15T08:50:13.990Z,100672.57
2018-01-15T08:52:48.749Z,100670.30
2018-01-15T08:55:24.106Z,100664.75
2018-01-15T08:57:59.403Z,100662.70
2018-01-15T09:00:34.596Z,100650.59
2018-01-15T09:03:09.255Z,100649.84
2018-01-15T09:05:44.571Z,100640.37
2018-01-15T09:08:19.243Z,100635.74
2018-01-15T09:10:54.428Z,100631.75
2018-01-15T09:13:29.757Z,100627.97
2018-01-15T09:16:04.423Z,100617.75
2018-01-15T09:18:39.538Z,100611.98
2018-01-15T09:21:14.247Z,100609.30
2018-01-15T09:23:49.475Z,100592.36
2018-01-15T09:26:24.368Z,100591.42
2018-01-15T09:28:59.414Z,100595.72
2018-01-15T09:31:34.683Z,100589.55
2018-01-15T09:34:09.245Z,100577.46
2018-01-15T09:36:43.992Z,100575.73
2018-01-15T09:39:19.292Z,100566.80
2018-01-15T09:41:54.279Z,100558.52
2018-01-15T09:44:30.754Z,100562.11
2018-01-15T09:47:05.412Z,100545.87
2018-01-15T09:49:40.502Z,100555.31
2018-01-15T09:52:15.570Z,100541.28
2018-01-15T09:54:50.928Z,100532.86
2018-01-15T09:57:25.640Z,100520.27
2018-01-15T10:00:00.647Z,100518.77
2018-01-15T10:02:35.671Z,100510.66
2018-01-15T10:05:10.728Z,100519.80
2018-01-15T10:07:45.785Z,100502.69
2018-01-15T10:10:20.848Z,100498.03
2018-01-15T10:12:56.299Z,100494.47
2018-01-15T10:15:31.447Z,100491.36
2018-01-15T10:18:06.429Z,100479.21
2018-01-15T10:20:41.652Z,100485.42
2018-01-15T10:23:16.387Z,100478.83
2018-01-15T10:25:51.630Z,100469.39
2018-01-15T10:28:26.440Z,100472.02
2018-01-15T10:31:00.804Z,100474.97
2018-01-15T10:33:35.859Z,100466.75
2018-01-15T10:36:11.499Z,100470.56
2018-01-15T10:38:46.373Z,100462.05
2018-01-15T10:41:21.355Z,100461.10
2018-01-15T10:43:56.382Z,100443.66
2018-01-15T10:46:31.462Z,100441.53
2018-01-15T10:49:06.463Z,100429.75
2018-01-15T10:51:41.209Z,100426.34
2018-01-15T10:54:16.318Z,100417.78
2018-01-15T10:56:51.386Z,100414.70
2018-01-15T10:59:26.161Z,100411.38
2018-01-15T11:02:01.518Z,100408.44
2018-01-15T11:04:36.586Z,100394.30
2018-01-15T11:07:11.655Z,100400.09
2018-01-15T11:09:46.819Z,100391.62
2018-01-15T11:12:21.530Z,100382.95
2018-01-15T11:14:56.643Z,100371.27
2018-01-15T11:17:31.836Z,100365.30
2018-01-15T11:20:07.307Z,100351.45
2018-01-15T11:22:42.751Z,100351.80
2018-01-15T11:25:17.638Z,100334.55
2018-01-15T11:27:52.875Z,100324.30
2018-01-15T11:30:27.574Z,100326.44
2018-01-15T11:33:02.804Z,100318.02
2018-01-15T11:35:38.066Z,100309.56
2018-01-15T11:38:13.591Z,100288.70
2018-01-15T11:40:48.870Z,100284.40
2018-01-15T11:43:23.643Z,100284.12
2018-01-15T11:45:58.635Z,100269.14
2018-01-15T11:48:34.128Z,100263.39
2018-01-15T11:51:08.790Z,100243.66
2018-01-15T11:53:43.795Z,100237.41
2018-01-15T11:56:18.876Z,100230.66
2018-01-15T11:58:53.726Z,100220.69
2018-01-15T12:01:28.803Z,100209.37
2018-01-15T12:04:03.571Z,100202.06
2018-01-15T12:06:38.437Z,100193.36
2018-01-15T12:09:13.286Z,100182.14
2018-01-15T12:11:48.710Z,100185.52
2018-01-15T12:14:23.686Z,100179.36
2018-01-15T12:16:58.924Z,100173.06
2018-01-15T12:19:34.139Z,100161.46
2018-01-15T12:22:08.733Z,100163.70
2018-01-15T12:24:43.374Z,100154.55
2018-01-15T12:27:18.087Z,100139.25
2018-01-15T12:29:53.146Z,100129.77
2018-01-15T12:32:28.125Z,100118.28
2018-01-15T12:35:03.026Z,100106.38
2018-01-15T12:37:38.413Z,100101.98
2018-01-15T12:40:12.953Z,100093.58
2018-01-15T12:42:48.803Z,100080.28
2018-01-15T12:45:23.439Z,100077.67
2018-01-15T12:47:58.799Z,100073.34
2018-01-15T12:50:34.183Z,100061.17
2018-01-15T12:53:08.900Z,100054.24
2018-01-15T12:55:43.950Z,100043.95
2018-01-15T12:58:18.833Z,100031.66
2018-01-15T13:00:54.106Z,100021.48
2018-01-15T13:03:28.511Z,100014.36
2018-01-15T13:06:07.099Z,100009.58
2018-01-15T13:11:41.207Z,99988.91
2018-01-15T13:14:16.012Z,99983.13
2018-01-15T13:16:51.010Z,99977.52
2018-01-15T13:19:25.536Z,99976.14
2018-01-15T13:22:00.050Z,99958.41
2018-01-15T13:24:34.479Z,99947.49
2018-01-15T13:27:09.295Z,99945.47
2018-01-15T13:29:44.334Z,99944.89
2018-01-15T13:32:18.907Z,99937.06
2018-01-15T13:34:54.094Z,99933.89
2018-01-15T13:37:28.757Z,99903.41
2018-01-15T13:40:03.641Z,99903.53
2018-01-15T13:42:39.126Z,99909.53
2018-01-15T13:45:14.351Z,99873.28
2018-01-15T13:47:49.375Z,99866.84
2018-01-15T13:50:23.854Z,99866.91
2018-01-15T13:52:58.258Z,99844.19
2018-01-15T13:55:34.314Z,99837.52
2018-01-15T13:58:08.959Z,99831.52
2018-01-15T14:00:43.835Z,99816.05
2018-01-15T14:03:18.962Z,99813.13
2018-01-15T14:05:53.979Z,99818.26
2018-01-15T14:08:28.971Z,99800.05
2018-01-15T14:11:04.186Z,99796.63
2018-01-15T14:13:38.964Z,99800.63
2018-01-15T14:16:14.114Z,99779.41
2018-01-15T14:18:49.197Z,99772.58
2018-01-15T14:21:24.355Z,99780.13
2018-01-15T14:23:59.901Z,99773.81
2018-01-15T14:26:34.871Z,99768.47
2018-01-15T14:29:09.990Z,99760.61
2018-01-15T14:31:45.427Z,99762.66
2018-01-15T14:34:20.159Z,99759.68
2018-01-15T14:36:55.170Z,99752.34
2018-01-15T14:39:30.509Z,99756.36
2018-01-15T14:42:05.233Z,99741.07
2018-01-15T14:44:40.011Z,99745.98
2018-01-15T14:47:14.682Z,99729.02
2018-01-15T14:49:49.518Z,99720.28
2018-01-15T14:52:24.067Z,99727.12
2018-01-15T14:54:59.051Z,99705.22
2018-01-15T14:57:34.469Z,99712.73
2018-01-15T15:00:09.636Z,99705.06
2018-01-15T15:02:44.531Z,99702.48
2018-01-15T15:05:20.106Z,99702.08
2018-01-15T15:07:55.063Z,99698.36
2018-01-15T15:10:30.018Z,99694.38
2018-01-15T15:13:04.305Z,99691.67
2018-01-15T15:15:39.161Z,99680.24
2018-01-15T15:18:14.193Z,99675.49
2018-01-15T15:20:49.434Z,99668.23
2018-01-15T15:23:24.297Z,99658.75
2018-01-15T15:25:59.482Z,99659.42
2018-01-15T15:28:34.309Z,99661.69
2018-01-15T15:31:09.570Z,99651.06
2018-01-15T15:33:44.443Z,99649.80
2018-01-15T15:36:19.222Z,99639.17
2018-01-15T15:38:54.394Z,99641.80
2018-01-15T15:41:29.213Z,99626.60
2018-01-15T15:44:04.277Z,99615.45
2018-01-15T15:46:39.489Z,99613.59
2018-01-15T15:49:15.163Z,99615.45
2018-01-15T15:51:49.570Z,99601.30
2018-01-15T15:54:25.224Z,99603.16
2018-01-15T15:57:00.234Z,99589.14
2018-01-15T15:59:35.473Z,99575.86
2018-01-15T16:02:10.544Z,99577.59
2018-01-15T16:04:45.294Z,99587.41
2018-01-15T16:07:20.686Z,99569.56
2018-01-15T16:09:54.920Z,99555.30
2018-01-15T16:12:29.214Z,99549.80
2018-01-15T16:15:04.075Z,99545.48
2018-01-15T16:17:39.485Z,99513.95
2018-01-15T16:20:14.602Z,99522.45
2018-01-15T16:22:57.814Z,99504.20
2018-01-15T16:25:32.755Z,99495.06
2018-01-15T16:28:08.206Z,99494.19
2018-01-15T16:30:43.447Z,99475.00
2018-01-15T16:33:18.598Z,99456.74
2018-01-15T16:35:53.295Z,99446.48
2018-01-15T16:38:28.489Z,99441.42
2018-01-15T16:41:03.384Z,99432.09
2018-01-15T16:43:38.796Z,99427.47
2018-01-15T16:46:13.593Z,99420.88
2018-01-15T16:48:48.565Z,99419.88
2018-01-15T16:51:23.137Z,99397.13
2018-01-15T16:53:58.656Z,99376.43
2018-01-15T16:56:34.366Z,99371.96
2018-01-15T16:59:09.138Z,99363.04
2018-01-15T17:01:44.321Z,99352.20
2018-01-15T17:04:19.312Z,99351.60
2018-01-15T17:06:54.324Z,99338.47
2018-01-15T17:09:28.830Z,99316.02
2018-01-15T17:12:04.350Z,99309.77
2018-01-15T17:14:39.697Z,99302.20
2018-01-15T17:17:14.887Z,99297.50
2018-01-15T17:19:49.718Z,99290.07
2018-01-15T17:22:24.634Z,99287.00
2018-01-15T17:24:59.630Z,99272.97
2018-01-15T17:27:34.857Z,99271.45
2018-01-15T17:30:09.382Z,99264.45
2018-01-15T17:32:44.486Z,99245.08
2018-01-15T17:35:18.924Z,99239.63
2018-01-15T17:37:54.290Z,99242.66
2018-01-15T17:40:29.573Z,99227.84
2018-01-15T17:43:04.542Z,99218.40
2018-01-15T17:45:39.842Z,99217.00
2018-01-15T17:48:14.951Z,99205.25
2018-01-15T17:50:50.727Z,99209.03
2018-01-15T17:53:25.566Z,99192.70
2018-01-15T17:56:00.806Z,99181.48
2018-01-15T17:58:36.598Z,99173.42
2018-01-15T18:01:11.707Z,99160.70
2018-01-15T18:03:46.850Z,99152.67
2018-01-15T18:06:21.486Z,99160.34
2018-01-15T18:08:56.490Z,99141.46
2018-01-15T18:11:31.590Z,99119.47
2018-01-15T18:14:06.606Z,99125.80
2018-01-15T18:16:40.974Z,99110.47
2018-01-15T18:19:15.643Z,99103.06
2018-01-15T18:21:50.869Z,99086.45
2018-01-15T18:24:26.481Z,99083.58
2018-01-15T18:27:01.031Z,99082.44
2018-01-15T18:29:35.897Z,99073.62
2018-01-15T18:32:11.628Z,99063.57
2018-01-15T18:34:46.863Z,99070.87
2018-01-15T18:37:21.796Z,99044.58
2018-01-15T18:39:56.981Z,99047.58
2018-01-15T18:42:31.599Z,99039.41
2018-01-15T18:45:06.787Z,99038.30
2018-01-15T18:47:41.842Z,99019.45
2018-01-15T18:50:16.753Z,99014.80
2018-01-15T18:52:51.827Z,99003.90
2018-01-15T18:55:26.868Z,99006.97
2018-01-15T18:58:01.598Z,99001.63
2018-01-15T19:00:36.795Z,99000.42
2018-01-15T19:03:11.731Z,98983.15
2018-01-15T19:05:46.862Z,98978.64
2018-01-15T19:08:21.733Z,98976.06
2018-01-15T19:10:56.803Z,98970.92
2018-01-15T19:13:31.257Z,98967.84
2018-01-15T19:16:06.734Z,98951.84
2018-01-15T19:18:41.914Z,98936.70
2018-01-15T19:21:16.986Z,98934.64
2018-01-15T19:23:51.855Z,98937.23
2018-01-15T19:26:26.366Z,98914.70
2018-01-15T19:29:00.588Z,98914.13
2018-01-15T19:31:35.482Z,98920.40
2018-01-15T19:34:09.727Z,98895.45
2018-01-15T19:36:46.511Z,98894.84
2018-01-15T19:39:22.880Z,98888.64
2018-01-15T19:41:58.094Z,98890.58
2018-01-15T19:44:39.194Z,98866.98
2018-01-15T19:47:19.271Z,98861.17
2018-01-15T19:50:00.245Z,98852.84
2018-01-15T19:52:41.101Z,98842.96
2018-01-15T19:55:21.572Z,98831.69
2018-01-15T19:58:01.367Z,98829.16
2018-01-15T20:00:41.255Z,98815.47
2018-01-15T20:03:21.369Z,98803.83
2018-01-15T20:09:02.686Z,98783.61
2018-01-15T20:11:38.018Z,98779.72
2018-01-15T20:14:12.646Z,98797.70
2018-01-15T20:16:46.957Z,98774.39
2018-01-15T20:19:21.990Z,98769.70
2018-01-15T20:21:56.956Z,98778.67
2018-01-15T20:24:32.181Z,98761.11
2018-01-15T20:27:07.176Z,98769.56
2018-01-15T20:29:42.187Z,98751.82
2018-01-15T20:32:17.039Z,98754.61
2018-01-15T20:34:52.008Z,98743.58
2018-01-15T20:37:26.993Z,98724.08
2018-01-15T20:40:01.831Z,98719.50
2018-01-15T20:42:37.006Z,98710.66
2018-01-15T20:45:11.983Z,98694.66
2018-01-15T20:47:46.642Z,98691.13
2018-01-15T20:50:21.546Z,98684.14
2018-01-15T20:52:56.635Z,98675.08
2018-01-15T20:55:31.971Z,98662.36
2018-01-15T20:58:07.016Z,98661.39
2018-01-15T21:00:42.332Z,98659.00
2018-01-15T21:03:17.349Z,98647.77
2018-01-15T21:05:52.363Z,98655.08
2018-01-15T21:08:27.970Z,98647.97
2018-01-15T21:11:03.098Z,98641.58
2018-01-15T21:13:37.662Z,98642.78
2018-01-15T21:16:13.014Z,98641.74
2018-01-15T21:18:48.299Z,98644.27
2018-01-15T21:21:22.913Z,98625.64
2018-01-15T21:23:58.100Z,98620.93
2018-01-15T21:26:33.145Z,98634.08
2018-01-15T21:29:08.006Z,98626.73
2018-01-15T21:31:43.205Z,98621.86
2018-01-15T21:34:17.653Z,98616.92
2018-01-15T21:36:52.951Z,98610.80
2018-01-15T21:39:28.109Z,98617.83
2018-01-15T21:42:02.987Z,98593.24
2018-01-15T21:44:37.962Z,98608.26
2018-01-15T21:47:13.136Z,98591.96
2018-01-15T21:49:47.807Z,98585.33
2018-01-15T21:52:23.279Z,98574.25
2018-01-15T21:54:58.283Z,98588.08
2018-01-15T21:57:33.314Z,98579.16
2018-01-15T22:00:08.005Z,98584.00
2018-01-15T22:02:43.612Z,98592.52
2018-01-15T22:05:18.713Z,98579.64
2018-01-15T22:07:53.843Z,98577.83
2018-01-15T22:10:28.775Z,98571.00
2018-01-15T22:13:04.210Z,98584.20
2018-01-15T22:15:39.388Z,98583.84
2018-01-15T22:18:15.354Z,98572.45
2018-01-15T22:20:50.459Z,98572.73
2018-01-15T22:23:25.471Z,98568.09
2018-01-15T22:26:00.635Z,98576.16
2018-01-15T22:28:36.638Z,98583.06
2018-01-15T22:31:11.743Z,98569.75
2018-01-15T22:33:46.688Z,98581.06
2018-01-15T22:36:21.483Z,98579.92
2018-01-15T22:38:56.437Z,98569.98
2018-01-15T22:41:31.463Z,98575.76
2018-01-15T22:44:06.353Z,98575.40
2018-01-15T22:46:41.574Z,98574.81
2018-01-15T22:49:16.342Z,98562.51
2018-01-15T22:51:51.490Z,98571.55
2018-01-15T22:54:26.350Z,98571.47
2018-01-15T22:57:01.226Z,98583.84
2018-01-15T22:59:35.913Z,98564.58
2018-01-15T23:02:10.779Z,98553.45
2018-01-15T23:04:45.594Z,98566.53
2018-01-15T23:07:20.457Z,98567.23
2018-01-15T23:09:55.487Z,98571.43
2018-01-15T23:12:30.537Z,98566.63
2018-01-15T23:15:05.198Z,98572.17
2018-01-15T23:17:40.605Z,98572.52
2018-01-15T23:20:15.553Z,98587.07
2018-01-15T23:22:50.726Z,98574.80
2018-01-15T23:25:25.534Z,98564.41
2018-01-15T23:28:00.763Z,98570.58
2018-01-15T23:30:35.750Z,98553.90
2018-01-15T23:33:10.866Z,98570.48
2018-01-15T23:35:45.831Z,98561.56
2018-01-15T23:38:20.947Z,98568.83
2018-01-15T23:40:55.976Z,98553.56
2018-01-15T23:43:31.473Z,98553.33
2018-01-15T23:46:06.366Z,98557.05
2018-01-15T23:48:41.010Z,98535.91
2018-01-15T23:51:16.043Z,98547.86
2018-01-15T23:53:51.258Z,98533.12
2018-01-15T23:56:25.933Z,98536.19
2018-01-15T23:59:00.810Z,98535.36
